Time;durP1;ratioP1;P1;durP2;ratioP2;P2;SDS_P1;SDS_P2;PMS_P1;PMS_P2;Temp;Humidity;BMP_temperature;BMP_pressure;BME280_temperature;BME280_humidity;BME280_pressure;Samples;Min_cycle;Max_cycle;Signal;HPM_P1;HPM_P2
2023/10/15 00:00:13;;;;;;;9.10;4.13;;;;;;;15.14;89.93;98003.94;5065371;28;20108;-36
2023/10/15 00:02:41;;;;;;;9.35;5.10;;;;;;;15.11;90.22;98005.03;5064926;28;20044;-36
2023/10/15 00:05:12;;;;;;;11.23;5.97;;;;;;;15.13;90.36;97995.25;5075893;28;20476;-36
2023/10/15 00:07:39;;;;;;;9.10;4.88;;;;;;;15.13;90.08;97999.66;5062976;28;20036;-36
2023/10/15 00:10:12;;;;;;;6.68;4.70;;;;;;;15.08;90.66;98005.25;5063941;28;20072;-37
2023/10/15 00:12:39;;;;;;;8.50;4.70;;;;;;;15.07;90.55;98000.16;5059638;28;20150;-37
2023/10/15 00:15:19;;;;;;;7.28;5.40;;;;;;;15.06;91.17;97993.28;5058293;28;20075;-36
2023/10/15 00:17:47;;;;;;;7.13;4.22;;;;;;;15.07;91.06;98006.22;5065195;28;20058;-39
2023/10/15 00:20:16;;;;;;;11.10;5.28;;;;;;;14.81;91.02;97955.94;5065327;28;20427;-36
2023/10/15 00:22:51;;;;;;;8.57;4.35;;;;;;;15.06;91.13;98003.75;5059999;28;20044;-36
2023/10/15 00:25:20;;;;;;;10.90;5.63;;;;;;;15.04;91.18;97992.56;5049034;28;20036;-35
2023/10/15 00:27:52;;;;;;;7.90;4.15;;;;;;;14.77;91.43;97948.47;5066944;28;20123;-36
2023/10/15 00:30:19;;;;;;;9.52;4.65;;;;;;;15.02;91.59;97992.66;5060568;28;20033;-35
2023/10/15 00:32:46;;;;;;;9.82;5.10;;;;;;;14.98;91.55;97988.63;5079648;28;20048;-36
2023/10/15 00:35:13;;;;;;;4.85;3.03;;;;;;;14.98;91.93;97995.66;5066579;28;20428;-36
2023/10/15 00:37:41;;;;;;;7.57;4.53;;;;;;;15.03;91.63;97991.72;5062958;28;20052;-36
2023/10/15 00:40:18;;;;;;;8.55;5.22;;;;;;;15.08;91.01;97988.72;5059324;28;20036;-35
2023/10/15 00:42:45;;;;;;;9.25;5.28;;;;;;;14.94;91.04;97968.06;5059950;28;20044;-38
2023/10/15 00:45:14;;;;;;;6.50;4.45;;;;;;;15.09;90.94;97996.47;5067441;28;20036;-36
2023/10/15 00:47:42;;;;;;;9.48;5.68;;;;;;;15.01;90.88;97987.56;5065055;28;20040;-36
2023/10/15 00:50:09;;;;;;;9.68;5.03;;;;;;;15.08;91.20;97994.78;5044753;28;20047;-36
2023/10/15 00:52:42;;;;;;;8.05;4.95;;;;;;;15.08;91.02;97992.19;5078203;28;20041;-35
2023/10/15 00:55:17;;;;;;;10.10;4.85;;;;;;;15.08;90.99;97993.97;5080704;28;20062;-36
2023/10/15 00:57:47;;;;;;;9.95;4.60;;;;;;;15.10;91.24;97999.91;5073742;28;20068;-35
2023/10/15 01:03:03;;;;;;;8.93;4.82;;;;;;;15.13;90.97;97997.88;5064544;28;20772;-36
2023/10/15 01:05:35;;;;;;;8.80;5.65;;;;;;;15.16;90.94;98002.88;5063922;28;20040;-36
2023/10/15 01:08:03;;;;;;;9.73;4.90;;;;;;;15.01;90.57;97958.78;5065175;28;20123;-36
2023/10/15 01:10:36;;;;;;;6.50;4.57;;;;;;;15.18;90.60;97990.50;5050620;28;20149;-37
2023/10/15 01:13:21;;;;;;;7.32;5.40;;;;;;;15.20;90.38;97990.38;5069370;28;20106;-36
2023/10/15 01:15:55;;;;;;;8.18;5.60;;;;;;;15.19;90.38;97978.22;5081034;28;20041;-36
2023/10/15 01:18:21;;;;;;;9.10;4.93;;;;;;;15.16;90.11;97978.50;5070016;28;20458;-35
2023/10/15 01:20:48;;;;;;;9.13;4.68;;;;;;;15.14;90.10;97986.47;5084086;28;20093;-35
2023/10/15 01:23:28;;;;;;;8.15;5.20;;;;;;;15.09;90.72;97982.53;5068605;28;20040;-36
2023/10/15 01:25:59;;;;;;;7.88;4.25;;;;;;;14.90;90.85;97961.41;5063519;28;20036;-36
2023/10/15 01:28:36;;;;;;;6.93;4.53;;;;;;;14.96;91.21;97971.41;5059623;28;20124;-36
2023/10/15 01:31:06;;;;;;;8.40;5.55;;;;;;;14.95;90.83;97961.88;5082004;28;20039;-35
2023/10/15 01:33:56;;;;;;;8.38;5.07;;;;;;;15.03;90.74;97973.38;5069370;28;20036;-35
2023/10/15 01:36:27;;;;;;;9.75;4.70;;;;;;;15.21;90.48;98005.13;5068090;28;20048;-35
2023/10/15 01:39:09;;;;;;;7.93;4.97;;;;;;;15.23;90.34;98004.03;5068408;28;20032;-35
2023/10/15 01:41:39;;;;;;;10.55;6.13;;;;;;;15.25;89.98;98003.94;5069689;28;20135;-36
2023/10/15 01:44:10;;;;;;;6.18;3.75;;;;;;;15.25;89.76;98003.94;5067144;28;20040;-35
2023/10/15 01:49:09;;;;;;;8.05;5.00;;;;;;;15.24;89.78;98005.72;5067493;28;20127;-35
2023/10/15 01:51:39;;;;;;;;;;;;;;;15.22;89.69;97985.88;5084018;28;20107;-36
2023/10/15 01:54:09;;;;;;;6.05;3.72;;;;;;;15.20;89.85;98000.84;5068254;28;20403;-36
2023/10/15 01:56:39;;;;;;;8.38;5.47;;;;;;;15.06;90.06;97981.03;5049040;28;20056;-36
2023/10/15 01:59:09;;;;;;;15.20;5.43;;;;;;;15.11;89.93;97981.47;5081314;28;20446;-36
2023/10/15 02:01:40;;;;;;;12.25;5.95;;;;;;;15.11;90.42;97988.50;5066817;28;20040;-35
2023/10/15 02:06:45;;;;;;;8.35;5.32;;;;;;;15.14;90.46;97990.84;5065788;28;20075;-35
2023/10/15 02:09:18;;;;;;;9.23;6.13;;;;;;;14.98;90.63;97967.69;5026040;28;20504;-36
2023/10/15 02:11:47;;;;;;;7.38;4.97;;;;;;;15.15;90.44;97992.53;5066838;28;20046;-36
2023/10/15 02:14:27;;;;;;;;;;;;;;;15.16;90.18;97988.97;5082462;28;20044;-36
2023/10/15 02:16:53;;;;;;;8.02;4.30;;;;;;;15.15;90.36;97990.75;5046107;28;19921;-35
2023/10/15 02:19:40;;;;;;;7.95;5.25;;;;;;;15.16;90.17;97994.19;5060567;28;20036;-36
2023/10/15 02:22:08;;;;;;;9.32;4.47;;;;;;;15.14;90.27;97991.69;5079509;28;20048;-36
2023/10/15 02:24:34;;;;;;;8.75;5.03;;;;;;;15.11;90.20;97991.94;5067974;28;20039;-34
2023/10/15 02:27:05;;;;;;;10.65;5.35;;;;;;;15.12;90.30;97995.41;5067570;28;20040;-37
2023/10/15 02:32:07;;;;;;;10.75;5.10;;;;;;;15.12;90.37;97988.38;5068493;28;20471;-36
2023/10/15 02:34:40;;;;;;;10.30;5.35;;;;;;;15.09;90.49;97987.78;5069015;28;20033;-36
2023/10/15 02:37:18;;;;;;;10.82;5.90;;;;;;;15.08;90.80;97975.63;5083876;28;20431;-36
2023/10/15 02:39:50;;;;;;;8.90;4.97;;;;;;;15.09;90.97;97996.47;5066689;28;20194;-36
2023/10/15 02:42:17;;;;;;;9.10;5.43;;;;;;;15.08;91.05;97997.41;5051460;28;20051;-37
2023/10/15 02:44:44;;;;;;;10.65;5.82;;;;;;;15.01;91.03;97977.09;5067378;28;20493;-36
2023/10/15 02:50:01;;;;;;;8.55;4.75;;;;;;;14.84;90.44;97953.09;5067021;28;20041;-37
2023/10/15 02:52:35;;;;;;;8.05;5.53;;;;;;;15.11;90.81;97996.34;5065392;28;20032;-36
2023/10/15 02:55:08;;;;;;;9.80;5.15;;;;;;;14.90;90.78;97964.88;5068715;28;20044;-36
2023/10/15 02:57:38;;;;;;;9.27;5.20;;;;;;;15.10;90.54;97999.91;5078716;28;20051;-37
2023/10/15 03:02:52;;;;;;;11.20;4.50;;;;;;;15.11;90.82;97996.34;5078380;28;20422;-37
2023/10/15 03:05:24;;;;;;;9.63;4.20;;;;;;;15.10;90.68;98000.75;5069349;28;20037;-35
2023/10/15 03:07:50;;;;;;;11.07;5.97;;;;;;;14.95;91.02;97981.03;5066866;28;20151;-37
2023/10/15 03:10:21;;;;;;;9.75;5.38;;;;;;;15.08;90.85;98015.72;5083787;28;20043;-36
2023/10/15 03:12:51;;;;;;;13.40;5.93;;;;;;;15.07;90.75;98005.41;5064216;28;20037;-36
2023/10/15 03:15:17;;;;;;;;;;;;;;;15.08;90.80;98000.03;5067327;28;20032;-36
2023/10/15 03:17:46;;;;;;;9.35;5.07;;;;;;;15.06;91.06;98001.97;5083759;28;19917;-36
2023/10/15 03:22:45;;;;;;;8.57;4.97;;;;;;;15.05;91.21;97999.44;5062835;28;20048;-36
2023/10/15 03:25:15;;;;;;;9.63;5.55;;;;;;;15.03;91.29;97996.94;5064487;28;20508;-36
2023/10/15 03:27:46;;;;;;;9.88;6.10;;;;;;;14.87;91.28;97972.09;5065811;28;20042;-36
2023/10/15 03:30:13;;;;;;;9.73;5.15;;;;;;;15.00;91.58;97997.19;5065523;28;20056;-37
2023/10/15 03:32:41;;;;;;;7.82;4.88;;;;;;;14.98;91.87;98003.50;5064313;28;20143;-41
2023/10/15 03:35:18;;;;;;;11.25;5.60;;;;;;;14.97;91.83;98001.84;5049720;28;20060;-36
2023/10/15 03:37:47;;;;;;;11.27;6.35;;;;;;;14.96;91.90;97980.09;5065202;28;20036;-36
2023/10/15 03:40:40;;;;;;;9.00;5.53;;;;;;;14.97;92.04;97991.38;5066132;28;20062;-36
2023/10/15 03:43:27;;;;;;;7.78;4.65;;;;;;;14.94;92.57;97981.16;5065188;28;20048;-37
2023/10/15 03:45:54;;;;;;;11.13;5.93;;;;;;;14.91;93.12;97982.25;5066290;28;20044;-36
2023/10/15 03:48:27;;;;;;;8.25;6.10;;;;;;;14.71;93.46;97959.41;5066215;28;20036;-37
2023/10/15 03:50:53;;;;;;;12.27;5.85;;;;;;;14.82;94.35;97993.41;5067839;28;20372;-36
2023/10/15 03:53:21;;;;;;;8.00;5.15;;;;;;;14.74;94.94;97994.03;5066934;28;20537;-35
2023/10/15 03:55:51;;;;;;;8.70;6.15;;;;;;;14.61;95.96;97985.44;5067613;28;20102;-36
2023/10/15 03:58:18;;;;;;;14.40;6.63;;;;;;;14.51;96.44;97963.59;5065044;28;20063;-36
2023/10/15 04:00:47;;;;;;;8.02;5.78;;;;;;;14.64;96.95;97998.31;5066185;28;20040;-36
2023/10/15 04:03:22;;;;;;;9.52;5.40;;;;;;;14.58;98.21;97993.53;5047618;28;20469;-37
2023/10/15 04:06:00;;;;;;;10.10;5.90;;;;;;;14.46;99.85;97989.25;5065783;28;20101;-36
2023/10/15 04:08:32;;;;;;;10.80;6.30;;;;;;;14.38;100.00;97994.25;5064850;28;20427;-37
2023/10/15 04:11:00;;;;;;;9.93;6.28;;;;;;;14.34;100.00;97991.00;5067498;28;20036;-36
2023/10/15 04:13:27;;;;;;;12.60;6.85;;;;;;;14.29;100.00;97980.06;5066100;28;20117;-38
2023/10/15 04:15:56;;;;;;;9.60;6.13;;;;;;;14.31;100.00;97998.25;5064198;28;20036;-36
2023/10/15 04:18:23;;;;;;;10.68;6.60;;;;;;;14.10;100.00;97981.56;5066288;28;20521;-37
2023/10/15 04:20:51;;;;;;;14.90;6.47;;;;;;;14.23;100.00;97998.00;5065619;28;20040;-36
2023/10/15 04:23:34;;;;;;;13.82;7.13;;;;;;;14.22;100.00;98009.41;5047260;28;20043;-37
2023/10/15 04:26:07;;;;;;;9.07;5.70;;;;;;;14.22;100.00;98004.19;5064280;28;20483;-36
2023/10/15 04:28:36;;;;;;;14.25;7.20;;;;;;;14.08;100.00;97979.06;5058361;28;20538;-37
2023/10/15 04:31:17;;;;;;;;;;;;;;;14.22;100.00;98005.00;5054312;28;20044;-36
2023/10/15 04:33:43;;;;;;;12.25;6.85;;;;;;;14.20;100.00;98004.28;5066009;28;19916;-37
2023/10/15 04:36:10;;;;;;;10.93;7.10;;;;;;;14.23;100.00;98014.53;5056471;28;20037;-35
2023/10/15 04:38:37;;;;;;;14.30;6.97;;;;;;;14.05;100.00;97987.16;5045630;28;20048;-36
2023/10/15 04:41:04;;;;;;;11.60;6.88;;;;;;;14.22;100.00;98009.41;5065829;28;20531;-36
2023/10/15 04:43:41;;;;;;;12.43;7.07;;;;;;;14.22;100.00;98022.47;5066067;28;20040;-36
2023/10/15 04:46:08;;;;;;;15.15;6.82;;;;;;;14.20;100.00;98032.19;5070540;28;20051;-36
2023/10/15 04:48:36;;;;;;;13.27;7.05;;;;;;;13.90;100.00;97991.75;5055959;28;20072;-36
2023/10/15 04:51:12;;;;;;;12.23;6.60;;;;;;;14.18;100.00;98040.19;5052952;28;20040;-36
2023/10/15 04:53:44;;;;;;;13.75;6.75;;;;;;;14.21;100.00;98046.94;5069116;28;20044;-36
2023/10/15 04:56:12;;;;;;;10.77;7.13;;;;;;;14.19;100.00;98051.44;5070769;28;20131;-36
2023/10/15 04:58:38;;;;;;;15.57;8.20;;;;;;;14.14;100.00;98050.94;5069699;28;20508;-36
2023/10/15 05:01:06;;;;;;;14.82;7.57;;;;;;;14.00;100.00;98060.66;5057571;28;20048;-35
2023/10/15 05:03:33;;;;;;;17.30;9.02;;;;;;;13.90;100.00;98057.06;5068997;28;20040;-35
2023/10/15 05:06:02;;;;;;;18.05;9.52;;;;;;;13.81;100.00;98052.53;5052947;28;20040;-36
2023/10/15 05:08:28;;;;;;;23.00;10.50;;;;;;;13.80;100.00;98058.69;5061831;28;20040;-41
2023/10/15 05:10:54;;;;;;;15.75;9.85;;;;;;;13.76;100.00;98064.25;5070555;28;20846;-38
2023/10/15 05:13:21;;;;;;;16.17;9.40;;;;;;;13.74;100.00;98071.34;5069516;28;20594;-36
2023/10/15 05:15:50;;;;;;;6.75;3.53;;;;;;;13.45;100.00;98074.28;5069466;28;20405;-36
2023/10/15 05:18:18;;;;;;;6.05;3.78;;;;;;;12.99;100.00;98083.66;5069385;28;20040;-37
2023/10/15 05:20:50;;;;;;;5.15;2.53;;;;;;;12.71;100.00;98085.59;5070500;28;20033;-38
2023/10/15 05:23:18;;;;;;;5.85;1.90;;;;;;;12.43;100.00;98091.00;5069680;28;20041;-37
2023/10/15 05:25:44;;;;;;;3.58;1.70;;;;;;;12.12;100.00;98086.16;5070435;28;20044;-36
2023/10/15 05:28:14;;;;;;;6.97;1.63;;;;;;;12.12;100.00;98096.56;5067789;28;20036;-36
2023/10/15 05:30:41;;;;;;;3.38;1.40;;;;;;;11.44;100.00;98036.75;5068678;28;20036;-36
2023/10/15 05:33:07;;;;;;;2.38;1.00;;;;;;;11.37;100.00;98066.69;5068299;28;20063;-36
2023/10/15 05:35:43;;;;;;;1.92;0.80;;;;;;;11.21;100.00;98087.63;5069982;28;20474;-36
2023/10/15 05:38:09;;;;;;;3.88;1.30;;;;;;;11.06;100.00;98093.78;5067374;28;20090;-36
2023/10/15 05:40:39;;;;;;;3.33;1.52;;;;;;;10.88;100.00;98097.53;5069463;28;20044;-35
2023/10/15 05:43:05;;;;;;;4.07;1.10;;;;;;;10.84;100.00;98101.22;5064011;28;20043;-36
2023/10/15 05:45:31;;;;;;;4.70;2.33;;;;;;;10.74;100.00;98103.53;5068932;28;20048;-36
2023/10/15 05:47:57;;;;;;;6.30;1.48;;;;;;;10.68;100.00;98105.69;5069737;28;20071;-36
2023/10/15 05:50:23;;;;;;;2.42;1.20;;;;;;;10.61;100.00;98095.66;5068298;28;20040;-35
2023/10/15 05:52:50;;;;;;;2.58;0.80;;;;;;;10.60;100.00;98075.81;5069322;28;20559;-36
2023/10/15 05:55:18;;;;;;;2.22;1.00;;;;;;;10.57;100.00;98060.38;5068984;28;20060;-35
2023/10/15 05:57:44;;;;;;;3.88;1.85;;;;;;;10.66;100.00;98060.75;5061487;28;20343;-35
2023/10/15 06:00:26;;;;;;;3.13;1.52;;;;;;;10.74;100.00;98056.75;5053217;28;20098;-36
2023/10/15 06:02:56;;;;;;;3.72;1.55;;;;;;;10.80;100.00;98066.78;5068103;28;20075;-36
2023/10/15 06:05:22;;;;;;;2.20;1.20;;;;;;;10.78;100.00;98070.44;5068275;28;20059;-35
2023/10/15 06:07:49;;;;;;;2.75;1.38;;;;;;;10.67;100.00;98071.06;5068861;28;20520;-35
2023/10/15 06:10:16;;;;;;;2.95;1.70;;;;;;;10.65;100.00;98066.88;5052543;28;20052;-36
2023/10/15 06:12:44;;;;;;;;;;;;;;;10.77;100.00;98081.75;5068077;28;20041;-36
2023/10/15 06:15:12;;;;;;;4.38;2.10;;;;;;;10.68;100.00;98082.31;5068584;28;20445;-35
2023/10/15 06:17:38;;;;;;;3.90;1.30;;;;;;;10.76;100.00;98088.72;5066495;28;20066;-35
2023/10/15 06:20:13;;;;;;;5.57;1.20;;;;;;;10.72;100.00;98086.38;5067110;28;20496;-36
2023/10/15 06:22:43;;;;;;;2.30;1.48;;;;;;;10.57;99.35;98096.75;5068896;28;20166;-35
2023/10/15 06:25:11;;;;;;;1.95;0.85;;;;;;;10.51;97.99;98120.53;5067258;28;20040;-36
2023/10/15 06:27:41;;;;;;;1.75;1.02;;;;;;;10.62;98.94;98144.09;5069544;28;20070;-36
2023/10/15 06:30:14;;;;;;;3.20;1.20;;;;;;;10.74;99.38;98141.69;5060202;28;20049;-35
2023/10/15 06:32:42;;;;;;;1.10;0.90;;;;;;;10.72;98.70;98153.97;5061005;28;20051;-37
2023/10/15 06:35:08;;;;;;;2.20;0.75;;;;;;;10.67;98.32;98156.00;5062126;28;20127;-36
2023/10/15 06:37:38;;;;;;;4.55;1.05;;;;;;;10.61;97.76;98160.63;5068124;28;20055;-35
2023/10/15 06:40:08;;;;;;;3.00;1.23;;;;;;;10.54;96.48;98172.31;5068849;28;20044;-35
2023/10/15 06:42:35;;;;;;;3.88;1.27;;;;;;;10.33;95.76;98139.78;5066756;28;20420;-37
2023/10/15 06:45:06;;;;;;;2.78;0.98;;;;;;;10.28;96.69;98125.38;5047839;28;20103;-35
2023/10/15 06:47:35;;;;;;;3.13;0.70;;;;;;;10.51;96.26;98156.91;5068721;28;20067;-36
2023/10/15 06:50:08;;;;;;;5.38;1.65;;;;;;;10.31;96.64;98126.03;5067160;28;20078;-37
2023/10/15 06:52:42;;;;;;;4.85;1.65;;;;;;;10.31;97.47;98120.03;5066746;28;20043;-35
2023/10/15 06:55:11;;;;;;;2.20;0.98;;;;;;;10.50;98.33;98123.22;5066440;28;20094;-35
2023/10/15 06:57:39;;;;;;;2.80;1.00;;;;;;;10.66;98.29;98142.16;5067859;28;20064;-35
2023/10/15 07:00:12;;;;;;;2.22;0.98;;;;;;;10.59;98.20;98144.28;5050542;28;20068;-36
2023/10/15 07:02:38;;;;;;;2.58;0.88;;;;;;;10.40;97.76;98120.31;5067311;28;20040;-36
2023/10/15 07:05:05;;;;;;;4.72;0.85;;;;;;;10.42;97.37;98133.19;5068236;28;20132;-36
2023/10/15 07:07:35;;;;;;;;;;;;;;;10.36;97.97;98138.78;5065752;28;20573;-36
2023/10/15 07:10:06;;;;;;;1.52;0.82;;;;;;;10.33;98.99;98134.56;5067753;28;19963;-36
2023/10/15 07:12:34;;;;;;;1.85;0.95;;;;;;;10.29;99.59;98132.25;5066465;28;20467;-37
2023/10/15 07:15:01;;;;;;;2.88;0.85;;;;;;;10.26;99.53;98138.44;5066304;28;20530;-35
2023/10/15 07:17:31;;;;;;;2.83;1.00;;;;;;;10.39;100.00;98136.81;5066740;28;20048;-36
2023/10/15 07:19:57;;;;;;;1.70;0.80;;;;;;;10.35;99.33;98137.94;5064718;28;20044;-36
2023/10/15 07:22:23;;;;;;;2.40;1.10;;;;;;;10.37;100.00;98135.22;5059540;28;20043;-36
2023/10/15 07:24:50;;;;;;;2.58;1.13;;;;;;;10.16;99.75;98113.94;5065612;28;20040;-35
2023/10/15 07:27:16;;;;;;;1.83;1.00;;;;;;;10.27;99.58;98140.13;5065519;28;20098;-36
2023/10/15 07:29:42;;;;;;;3.88;1.08;;;;;;;10.27;100.00;98137.53;5062495;28;20044;-35
2023/10/15 07:32:09;;;;;;;3.83;1.00;;;;;;;10.12;100.00;98107.22;5062034;28;20036;-36
2023/10/15 07:34:35;;;;;;;2.75;1.30;;;;;;;10.13;100.00;98106.31;5066397;28;20500;-36
2023/10/15 07:37:01;;;;;;;5.55;1.02;;;;;;;10.41;100.00;98137.59;5067396;28;20044;-35
2023/10/15 07:39:27;;;;;;;3.00;1.48;;;;;;;10.47;100.00;98133.75;5063819;28;20868;-36
2023/10/15 07:41:54;;;;;;;3.17;1.10;;;;;;;10.47;100.00;98126.81;5062751;28;20083;-36
2023/10/15 07:44:21;;;;;;;4.55;1.27;;;;;;;10.50;100.00;98133.59;5065867;28;20536;-35
2023/10/15 07:46:52;;;;;;;4.50;1.27;;;;;;;10.43;100.00;98133.13;5066748;28;20044;-37
2023/10/15 07:49:19;;;;;;;7.57;1.30;;;;;;;10.39;100.00;98100.47;5054869;28;20040;-37
2023/10/15 07:51:47;;;;;;;3.85;1.55;;;;;;;10.57;100.00;98125.34;5047055;28;20063;-37
2023/10/15 07:54:14;;;;;;;2.85;1.27;;;;;;;10.61;100.00;98126.00;5064667;28;20127;-38
2023/10/15 07:56:41;;;;;;;5.68;2.05;;;;;;;10.63;100.00;98124.13;5066325;28;20095;-37
2023/10/15 07:59:08;;;;;;;5.30;2.20;;;;;;;10.67;100.00;98119.63;5064717;28;20048;-36
2023/10/15 08:01:36;;;;;;;3.83;1.58;;;;;;;10.72;100.00;98134.00;5064898;28;20071;-37
2023/10/15 08:04:05;;;;;;;4.03;1.30;;;;;;;10.78;100.00;98141.41;5066652;28;20044;-36
2023/10/15 08:06:32;;;;;;;3.72;1.50;;;;;;;10.70;100.00;98130.66;5065875;28;20058;-36
2023/10/15 08:08:57;;;;;;;3.72;1.45;;;;;;;10.79;100.00;98143.09;5063972;28;20098;-36
2023/10/15 08:11:23;;;;;;;3.22;1.20;;;;;;;10.86;100.00;98143.56;5065668;28;20048;-39
2023/10/15 08:13:50;;;;;;;3.60;1.30;;;;;;;10.66;100.00;98123.13;5038394;28;20048;-38
2023/10/15 08:16:18;;;;;;;4.50;1.73;;;;;;;10.62;100.00;98114.69;5065232;28;20043;-36
2023/10/15 08:18:45;;;;;;;4.00;1.55;;;;;;;10.85;100.00;98137.53;5064635;28;20044;-36
2023/10/15 08:21:12;;;;;;;4.25;1.92;;;;;;;10.99;100.00;98141.91;5061403;28;20059;-36
2023/10/15 08:23:39;;;;;;;3.75;1.67;;;;;;;10.91;100.00;98139.78;5064510;28;20036;-35
2023/10/15 08:26:06;;;;;;;5.13;1.65;;;;;;;10.98;100.00;98146.28;5059663;28;20519;-35
2023/10/15 08:28:33;;;;;;;6.80;1.30;;;;;;;11.00;100.00;98153.97;5060714;28;20091;-37
2023/10/15 08:30:59;;;;;;;2.35;1.20;;;;;;;11.01;100.00;98153.88;5064908;28;20060;-35
2023/10/15 08:33:28;;;;;;;2.05;1.05;;;;;;;11.05;100.00;98164.94;5063469;28;20533;-36
2023/10/15 08:35:54;;;;;;;3.53;1.17;;;;;;;11.03;100.00;98157.25;5063946;28;20040;-36
2023/10/15 08:38:20;;;;;;;3.15;1.23;;;;;;;11.01;100.00;98159.09;5066406;28;20487;-36
2023/10/15 08:40:48;;;;;;;3.38;1.50;;;;;;;10.99;100.00;98150.53;5057692;28;20056;-34
2023/10/15 08:43:32;;;;;;;3.05;1.30;;;;;;;11.04;100.00;98166.69;5061923;28;20087;-35
2023/10/15 08:46:01;;;;;;;3.95;1.52;;;;;;;11.14;100.00;98164.41;5048394;28;20066;-37
2023/10/15 08:48:31;;;;;;;7.68;1.90;;;;;;;11.10;100.00;98159.44;5066423;28;20041;-35
2023/10/15 08:50:57;;;;;;;4.40;2.13;;;;;;;10.93;100.00;98118.88;5065661;28;20049;-36
2023/10/15 08:53:26;;;;;;;2.95;1.10;;;;;;;11.09;100.00;98144.78;5065226;28;20040;-35
2023/10/15 08:55:57;;;;;;;6.90;1.95;;;;;;;11.09;100.00;98144.78;5061562;28;20044;-36
2023/10/15 08:58:25;;;;;;;5.07;1.55;;;;;;;11.09;100.00;98143.03;5064219;28;20523;-35
2023/10/15 09:00:52;;;;;;;3.78;1.52;;;;;;;11.09;100.00;98143.03;5046361;28;20049;-37
2023/10/15 09:03:19;;;;;;;4.55;1.40;;;;;;;11.04;100.00;98135.47;5064333;28;20036;-35
2023/10/15 09:05:45;;;;;;;3.35;1.60;;;;;;;10.89;100.00;98113.00;5064106;28;20068;-36
2023/10/15 09:08:13;;;;;;;4.18;1.70;;;;;;;10.84;100.00;98101.22;5064533;28;20790;-36
2023/10/15 09:10:42;;;;;;;2.33;0.82;;;;;;;10.98;100.00;98127.25;5064040;28;20082;-36
2023/10/15 09:13:14;;;;;;;3.35;1.50;;;;;;;10.98;100.00;98122.03;5064263;28;20534;-38
2023/10/15 09:15:52;;;;;;;5.45;1.40;;;;;;;10.98;100.00;98106.44;5067901;28;20060;-37
2023/10/15 09:18:18;;;;;;;6.47;1.05;;;;;;;11.18;100.00;98128.63;5062671;28;20125;-36
2023/10/15 09:20:51;;;;;;;5.00;1.65;;;;;;;11.25;100.00;98128.13;5059940;28;20072;-36
2023/10/15 09:23:21;;;;;;;3.17;1.45;;;;;;;11.27;100.00;98128.03;5065570;28;20127;-36
2023/10/15 09:25:52;;;;;;;3.85;1.70;;;;;;;11.33;100.00;98138.06;5073329;28;20108;-36
2023/10/15 09:28:19;;;;;;;4.70;1.70;;;;;;;11.26;100.00;98111.59;5062445;28;20052;-38
2023/10/15 09:30:46;;;;;;;7.25;1.70;;;;;;;11.32;100.00;98139.00;5066807;28;20046;-36
2023/10/15 09:33:17;;;;;;;6.70;1.50;;;;;;;11.11;100.00;98112.53;5066977;28;20040;-37
2023/10/15 09:35:43;;;;;;;4.00;1.20;;;;;;;11.24;100.00;98130.84;5069324;28;20128;-37
2023/10/15 09:38:14;;;;;;;4.35;1.10;;;;;;;11.29;100.00;98127.03;5067435;28;20075;-37
2023/10/15 09:40:43;;;;;;;4.38;1.90;;;;;;;11.30;100.00;98112.25;5067334;28;20036;-39
2023/10/15 09:43:10;;;;;;;;;;;;;;;11.44;100.00;98125.22;5068715;28;20147;-38
2023/10/15 09:45:36;;;;;;;9.50;1.75;;;;;;;11.52;100.00;98125.56;5066607;28;19927;-35
2023/10/15 09:48:02;;;;;;;4.30;1.40;;;;;;;11.48;99.82;98111.94;5069721;28;20123;-36
2023/10/15 09:50:31;;;;;;;7.22;1.48;;;;;;;11.66;99.36;98125.56;5069078;28;20070;-37
2023/10/15 09:53:01;;;;;;;;;;;;;;;11.71;99.26;98133.06;5067121;28;20113;-41
2023/10/15 09:55:28;;;;;;;3.58;1.60;;;;;;;11.72;99.16;98155.56;5066897;28;19930;-36
2023/10/15 09:57:56;;;;;;;6.55;1.67;;;;;;;11.63;97.97;98135.31;5048577;28;20137;-36
2023/10/15 10:01:08;;;;;;;5.32;1.95;;;;;;;11.68;98.12;98148.88;5071484;28;20047;-36
2023/10/15 10:03:47;;;;;;;4.47;1.80;;;;;;;11.77;97.86;98138.75;5063506;28;20135;-36
2023/10/15 10:06:45;;;;;;;8.48;1.63;;;;;;;11.81;97.79;98134.19;5061003;28;20044;-37
2023/10/15 10:09:17;;;;;;;7.57;1.50;;;;;;;11.87;96.75;98132.03;5078995;28;20048;-35
2023/10/15 10:11:59;;;;;;;5.20;1.30;;;;;;;11.89;96.29;98127.53;5062520;28;20045;-37
2023/10/15 10:15:10;;;;;;;3.72;1.33;;;;;;;11.83;94.96;98138.34;5034337;28;20093;-35
2023/10/15 10:17:37;;;;;;;5.13;1.38;;;;;;;11.80;94.30;98124.69;5041972;28;20506;-56
2023/10/15 10:20:11;;;;;;;2.30;1.17;;;;;;;11.94;94.62;98113.38;5067163;28;20040;-45
2023/10/15 10:22:38;;;;;;;4.93;1.10;;;;;;;11.94;93.62;98102.97;5066462;28;20786;-36
2023/10/15 10:25:06;;;;;;;6.28;1.42;;;;;;;12.15;93.05;98136.25;5049524;28;20037;-35
2023/10/15 10:27:43;;;;;;;2.20;1.10;;;;;;;12.17;92.03;98139.63;5065890;28;20071;-37
2023/10/15 10:30:39;;;;;;;4.03;1.30;;;;;;;12.25;91.90;98133.88;5077316;28;20044;-36
2023/10/15 10:33:05;;;;;;;5.10;1.50;;;;;;;12.35;90.67;98121.94;5053966;28;20118;-36
2023/10/15 10:35:42;;;;;;;7.35;1.52;;;;;;;12.62;90.08;98093.16;5060769;28;20511;-36
2023/10/15 10:38:11;;;;;;;2.90;1.08;;;;;;;12.98;88.27;98139.41;5065920;28;20484;-35
2023/10/15 10:40:56;;;;;;;5.47;1.60;;;;;;;12.93;87.82;98139.69;5048207;28;20142;-35
2023/10/15 10:43:24;;;;;;;3.67;0.93;;;;;;;12.84;86.87;98137.72;5060966;28;20183;-35
2023/10/15 10:45:55;;;;;;;3.17;1.30;;;;;;;12.79;86.16;98144.19;5067428;28;20037;-36
2023/10/15 10:48:25;;;;;;;4.10;1.25;;;;;;;12.74;84.97;98141.88;5064651;28;20119;-36
2023/10/15 10:51:15;;;;;;;7.68;1.13;;;;;;;12.58;84.66;98133.44;5065303;28;20056;-37
2023/10/15 10:53:57;;;;;;;7.28;1.42;;;;;;;12.39;84.83;98112.16;5066825;28;20055;-36
2023/10/15 10:56:25;;;;;;;6.00;1.27;;;;;;;12.47;84.71;98135.91;5030639;28;20037;-35
2023/10/15 10:58:52;;;;;;;4.50;1.27;;;;;;;12.56;85.38;98135.31;5066281;28;20078;-38
2023/10/15 11:01:19;;;;;;;4.93;1.20;;;;;;;12.53;83.84;98135.50;5064581;28;20126;-38
2023/10/15 11:03:47;;;;;;;6.35;1.40;;;;;;;12.62;83.90;98140.94;5062030;28;20136;-36
2023/10/15 11:06:15;;;;;;;7.53;1.50;;;;;;;12.76;83.02;98141.78;5051428;28;20040;-38
2023/10/15 11:08:41;;;;;;;2.97;1.00;;;;;;;12.47;82.64;98125.50;5067800;28;21340;-37
2023/10/15 11:11:09;;;;;;;6.28;1.00;;;;;;;12.53;82.66;98145.94;5067144;28;20044;-37
2023/10/15 11:13:35;;;;;;;2.95;1.02;;;;;;;12.49;82.39;98144.47;5063261;28;20048;-37
2023/10/15 11:16:01;;;;;;;4.45;1.13;;;;;;;12.52;82.58;98152.91;5065482;28;20110;-36
2023/10/15 11:18:27;;;;;;;3.65;1.48;;;;;;;12.48;83.17;98141.03;5067778;28;20131;-37
2023/10/15 11:20:53;;;;;;;5.22;1.35;;;;;;;12.47;83.36;98135.91;5067618;28;20178;-37
2023/10/15 11:23:23;;;;;;;4.30;1.15;;;;;;;12.50;83.52;98151.38;5052928;28;20032;-35
2023/10/15 11:25:51;;;;;;;5.53;1.00;;;;;;;12.51;83.47;98142.63;5067558;28;20389;-36
2023/10/15 11:28:18;;;;;;;2.47;1.08;;;;;;;12.21;82.97;98103.75;5064068;28;20063;-36
2023/10/15 11:30:45;;;;;;;3.55;1.42;;;;;;;12.34;83.48;98129.88;5064900;28;20143;-35
2023/10/15 11:33:12;;;;;;;4.97;1.30;;;;;;;12.30;82.91;98131.81;5049524;28;20036;-36
2023/10/15 11:35:40;;;;;;;7.07;1.35;;;;;;;12.13;82.49;98098.25;5064942;28;20052;-36
2023/10/15 11:38:09;;;;;;;4.53;1.10;;;;;;;12.26;81.62;98128.59;5062027;28;20178;-36
2023/10/15 11:40:39;;;;;;;2.45;1.00;;;;;;;12.40;81.18;98147.69;5064458;28;20048;-36
2023/10/15 11:43:18;;;;;;;5.47;1.30;;;;;;;12.54;80.96;98166.69;5063698;28;20046;-38
2023/10/15 11:45:45;;;;;;;4.18;1.40;;;;;;;12.64;80.72;98161.69;5051579;28;20471;-37
2023/10/15 11:48:13;;;;;;;3.15;1.33;;;;;;;12.73;80.28;98156.69;5066489;28;20048;-36
2023/10/15 11:50:40;;;;;;;4.57;1.50;;;;;;;12.78;79.19;98155.53;5058761;28;20040;-36
2023/10/15 11:53:23;;;;;;;5.25;1.60;;;;;;;12.80;79.31;98151.06;5060499;28;20048;-36
2023/10/15 11:55:53;;;;;;;4.38;1.50;;;;;;;12.89;78.79;98148.66;5061855;28;20048;-38
2023/10/15 11:58:20;;;;;;;6.63;1.48;;;;;;;12.91;77.81;98151.19;5064267;28;20507;-36
2023/10/15 12:00:48;;;;;;;4.32;1.38;;;;;;;12.98;77.27;98147.22;5064946;28;20481;-37
2023/10/15 12:03:16;;;;;;;2.78;0.88;;;;;;;13.09;76.48;98129.88;5066812;28;20101;-36